createdAt,value
2022-07-25T00:07:03.933Z,15.76
2022-07-25T00:22:04.524Z,15.67
2022-07-25T00:37:04.653Z,15.68
2022-07-25T00:52:05.273Z,15.39
2022-07-25T01:07:06.506Z,15.44
2022-07-25T01:22:07.600Z,15.46
2022-07-25T01:37:08.758Z,15.38
2022-07-25T01:52:09.898Z,15.67
2022-07-25T02:07:10.996Z,15.69
2022-07-25T02:22:12.763Z,15.67
2022-07-25T02:37:13.445Z,15.87
2022-07-25T02:52:13.569Z,15.90
2022-07-25T03:07:14.216Z,15.62
2022-07-25T03:22:15.341Z,15.49
2022-07-25T03:37:16.541Z,15.27
2022-07-25T03:52:17.671Z,15.39
2022-07-25T04:07:18.843Z,15.50
2022-07-25T04:22:21.650Z,16.12
2022-07-25T04:37:22.826Z,17.46
2022-07-25T04:52:23.489Z,19.02
2022-07-25T05:07:23.649Z,20.38
2022-07-25T05:22:28.221Z,21.59
2022-07-25T05:37:29.462Z,23.17
2022-07-25T05:52:30.553Z,24.18
2022-07-25T06:07:31.703Z,25.38
2022-07-25T06:22:32.878Z,26.57
2022-07-25T06:37:34.020Z,27.72
2022-07-25T06:52:35.327Z,28.19
2022-07-25T07:07:36.335Z,28.88
2022-07-25T07:22:38.774Z,29.49
2022-07-25T07:37:43.457Z,30.02
2022-07-25T07:52:44.739Z,30.80
2022-07-25T08:07:45.883Z,31.35
2022-07-25T08:22:46.463Z,32.38
2022-07-25T08:37:47.068Z,33.06
2022-07-25T08:52:48.226Z,32.82
2022-07-25T09:07:49.537Z,33.42
2022-07-25T09:22:50.787Z,34.25
2022-07-25T09:37:51.884Z,34.53
2022-07-25T09:52:53.092Z,35.25
2022-07-25T10:07:54.351Z,36.28
2022-07-25T10:22:57.066Z,36.64
2022-07-25T10:37:58.659Z,37.31
2022-07-25T10:52:59.818Z,37.81
2022-07-25T11:23:09.187Z,37.21
2022-07-25T11:38:10.414Z,37.56
2022-07-25T11:53:11.567Z,37.06
2022-07-25T12:08:12.706Z,36.71
2022-07-25T12:23:13.910Z,37.49
2022-07-25T12:38:15.063Z,37.17
2022-07-25T12:53:16.058Z,36.80
2022-07-25T13:08:17.242Z,36.49
2022-07-25T13:23:20.929Z,36.69
2022-07-25T13:38:22.497Z,36.71
2022-07-25T13:53:26.719Z,36.57
2022-07-25T14:08:28.352Z,37.27
2022-07-25T14:23:30.245Z,36.64
2022-07-25T14:38:31.066Z,35.94
2022-07-25T14:53:32.171Z,35.34
2022-07-25T15:08:33.389Z,36.31
2022-07-25T15:23:39.664Z,36.56
2022-07-25T15:38:40.832Z,37.67
2022-07-25T15:53:42.065Z,36.64
2022-07-25T16:08:43.139Z,35.62
2022-07-25T16:23:45.891Z,34.62
2022-07-25T16:38:45.923Z,29.36
2022-07-25T16:53:46.721Z,26.52
2022-07-25T17:08:48.013Z,25.38
2022-07-25T17:23:49.518Z,24.76
2022-07-25T17:38:50.493Z,24.27
2022-07-25T17:53:51.771Z,24.50
2022-07-25T18:08:53.907Z,25.03
2022-07-25T18:23:55.487Z,24.99
2022-07-25T18:38:58.541Z,24.81
2022-07-25T18:54:01.091Z,24.77
2022-07-25T19:09:03.003Z,24.62
2022-07-25T19:24:04.945Z,24.39
2022-07-25T19:39:06.062Z,24.73
2022-07-25T19:54:07.860Z,24.28
2022-07-25T20:09:09.965Z,23.73
2022-07-25T20:24:12.022Z,23.28
2022-07-25T20:39:12.637Z,22.65
2022-07-25T20:54:14.410Z,22.31
2022-07-25T21:09:15.656Z,22.12
2022-07-25T21:24:16.357Z,21.91
2022-07-25T21:39:17.043Z,21.34
2022-07-25T21:54:17.778Z,21.31
2022-07-25T22:09:18.384Z,21.07
2022-07-25T22:24:19.589Z,21.14
2022-07-25T22:39:20.329Z,20.66
2022-07-25T22:54:20.960Z,20.13
2022-07-25T23:09:22.179Z,19.76
2022-07-25T23:24:23.383Z,19.48
2022-07-25T23:39:24.514Z,19.23
2022-07-25T23:54:25.658Z,19.36
